createdAt,value
2022-12-08T00:02:32.468Z,-0.24
2022-12-08T00:06:44.705Z,-0.26
2022-12-08T00:10:50.820Z,-0.27
2022-12-08T00:14:44.447Z,-0.27
2022-12-08T00:18:35.260Z,-0.28
2022-12-08T00:22:25.662Z,-0.29
2022-12-08T00:26:16.486Z,-0.28
2022-12-08T00:30:07.904Z,-0.28
2022-12-08T00:33:59.122Z,-0.30
2022-12-08T00:37:49.420Z,-0.31
2022-12-08T00:41:58.565Z,-0.31
2022-12-08T00:45:48.691Z,-0.34
2022-12-08T00:49:38.861Z,-0.35
2022-12-08T00:53:31.101Z,-0.35
2022-12-08T00:57:21.523Z,-0.37
2022-12-08T01:01:13.271Z,-0.39
2022-12-08T01:05:04.045Z,-0.41
2022-12-08T01:08:54.345Z,-0.42
2022-12-08T01:12:44.543Z,-0.45
2022-12-08T01:16:36.493Z,-0.47
2022-12-08T01:20:27.237Z,-0.51
2022-12-08T01:24:20.766Z,-0.54
2022-12-08T01:28:11.793Z,-0.56
2022-12-08T01:32:02.490Z,-0.57
2022-12-08T01:35:53.814Z,-0.58
2022-12-08T01:39:44.135Z,-0.58
2022-12-08T01:43:55.199Z,-0.60
2022-12-08T01:47:50.221Z,-0.66
2022-12-08T01:51:57.407Z,-0.70
2022-12-08T01:55:53.449Z,-0.73
2022-12-08T01:59:50.801Z,-0.76
2022-12-08T02:04:02.409Z,-0.78
2022-12-08T02:07:53.533Z,-0.80
2022-12-08T02:11:43.827Z,-0.82
2022-12-08T02:15:48.588Z,-0.85
2022-12-08T02:20:16.236Z,-0.87
2022-12-08T02:24:15.751Z,-0.90
2022-12-08T02:28:29.738Z,-0.91
2022-12-08T02:32:58.302Z,-0.93
2022-12-08T02:37:16.774Z,-0.92
2022-12-08T02:41:32.457Z,-0.92
2022-12-08T02:45:38.835Z,-0.94
2022-12-08T02:49:34.253Z,-0.97
2022-12-08T02:53:24.963Z,-0.99
2022-12-08T02:57:52.230Z,-1.01
2022-12-08T03:02:01.603Z,-1.04
2022-12-08T03:06:05.822Z,-1.06
2022-12-08T03:10:03.267Z,-1.08
2022-12-08T03:13:59.508Z,-1.09
2022-12-08T03:17:56.195Z,-1.09
2022-12-08T03:21:51.984Z,-1.10
2022-12-08T03:25:57.029Z,-1.12
2022-12-08T03:29:49.376Z,-1.13
2022-12-08T03:33:44.597Z,-1.12
2022-12-08T03:37:36.629Z,-1.12
2022-12-08T03:41:27.238Z,-1.12
2022-12-08T03:45:17.743Z,-1.12
2022-12-08T03:49:08.350Z,-1.11
2022-12-08T03:52:58.750Z,-1.09
2022-12-08T03:56:49.255Z,-1.10
2022-12-08T04:00:39.559Z,-1.12
2022-12-08T04:04:32.108Z,-1.14
2022-12-08T04:08:22.327Z,-1.15
2022-12-08T04:12:12.503Z,-1.14
2022-12-08T04:16:05.303Z,-1.13
2022-12-08T04:19:55.659Z,-1.11
2022-12-08T04:23:47.189Z,-1.08
2022-12-08T04:27:37.283Z,-1.08
2022-12-08T04:31:27.809Z,-1.09
2022-12-08T04:35:18.158Z,-1.08
2022-12-08T04:39:08.696Z,-1.08
2022-12-08T04:42:59.505Z,-1.05
2022-12-08T04:46:49.663Z,-0.97
2022-12-08T04:50:42.050Z,-0.91
2022-12-08T04:54:32.257Z,-0.87
2022-12-08T04:58:22.957Z,-0.84
2022-12-08T05:02:13.696Z,-0.83
2022-12-08T05:06:05.601Z,-0.83
2022-12-08T05:09:55.902Z,-0.90
2022-12-08T05:13:46.409Z,-0.93
2022-12-08T05:17:36.910Z,-0.96
2022-12-08T05:21:27.621Z,-0.99
2022-12-08T05:25:17.714Z,-1.04
2022-12-08T05:29:08.116Z,-1.03
2022-12-08T05:32:58.619Z,-1.05
2022-12-08T05:36:49.021Z,-1.06
2022-12-08T05:40:40.141Z,-1.10
2022-12-08T05:44:30.543Z,-1.11
2022-12-08T05:48:21.354Z,-1.11
2022-12-08T05:52:11.757Z,-1.09
2022-12-08T05:56:02.056Z,-1.07
2022-12-08T05:59:52.559Z,-1.03
2022-12-08T06:03:44.293Z,-0.99
2022-12-08T06:07:35.413Z,-0.95
2022-12-08T06:11:29.192Z,-0.93
2022-12-08T06:15:19.500Z,-0.88
2022-12-08T06:19:10.099Z,-0.85
2022-12-08T06:23:00.706Z,-0.81
2022-12-08T06:26:50.697Z,-0.79
2022-12-08T06:30:42.943Z,-0.77
2022-12-08T06:34:36.321Z,-0.74
2022-12-08T06:38:28.251Z,-0.71
2022-12-08T06:42:37.292Z,-0.67
2022-12-08T06:46:29.157Z,-0.64
2022-12-08T06:50:23.521Z,-0.63
2022-12-08T06:54:13.720Z,-0.61
2022-12-08T06:58:04.224Z,-0.59
2022-12-08T07:02:03.451Z,-0.57
2022-12-08T07:06:03.258Z,-0.54
2022-12-08T07:09:56.217Z,-0.51
2022-12-08T07:13:47.027Z,-0.49
2022-12-08T07:17:37.224Z,-0.46
2022-12-08T07:21:27.626Z,-0.43
2022-12-08T07:25:19.290Z,-0.40
2022-12-08T07:29:10.787Z,-0.37
2022-12-08T07:33:18.117Z,-0.33
2022-12-08T07:37:10.739Z,-0.29
2022-12-08T07:41:04.957Z,-0.25
2022-12-08T07:44:55.843Z,-0.20
2022-12-08T07:48:46.556Z,-0.16
2022-12-08T07:52:36.956Z,-0.12
2022-12-08T07:56:27.049Z,-0.07
2022-12-08T08:00:19.573Z,-0.03
2022-12-08T08:04:39.682Z,0.01
2022-12-08T08:08:30.473Z,0.06
2022-12-08T08:12:36.224Z,0.07
2022-12-08T08:16:26.789Z,0.10
2022-12-08T08:20:18.306Z,0.12
2022-12-08T08:24:09.438Z,0.14
2022-12-08T08:27:59.949Z,0.16
2022-12-08T08:31:50.636Z,0.18
2022-12-08T08:35:42.309Z,0.20
2022-12-08T08:39:32.776Z,0.22
2022-12-08T08:43:34.311Z,0.25
2022-12-08T08:47:28.321Z,0.29
2022-12-08T08:51:18.548Z,0.31
2022-12-08T08:55:09.126Z,0.35
2022-12-08T08:59:01.438Z,0.39
2022-12-08T09:02:54.230Z,0.43
2022-12-08T09:06:49.179Z,0.50
2022-12-08T09:10:44.365Z,0.57
2022-12-08T09:14:42.796Z,0.67
2022-12-08T09:18:34.903Z,0.75
2022-12-08T09:22:30.525Z,0.79
2022-12-08T09:26:25.093Z,0.80
2022-12-08T09:30:19.784Z,0.84
2022-12-08T09:34:12.571Z,0.89
2022-12-08T09:38:05.837Z,0.93
2022-12-08T09:42:03.059Z,0.99
2022-12-08T09:45:55.333Z,1.05
2022-12-08T09:50:09.076Z,1.08
2022-12-08T09:54:13.425Z,1.12
2022-12-08T09:58:07.023Z,1.21
2022-12-08T10:01:57.584Z,1.33
2022-12-08T10:05:58.351Z,1.44
2022-12-08T10:09:57.457Z,1.47
2022-12-08T10:14:07.827Z,1.52
2022-12-08T10:18:01.908Z,1.54
2022-12-08T10:21:53.649Z,1.55
2022-12-08T10:25:49.273Z,1.62
2022-12-08T10:29:41.252Z,1.70
2022-12-08T10:33:33.465Z,1.79
2022-12-08T10:37:23.446Z,1.85
2022-12-08T10:41:18.125Z,1.88
2022-12-08T10:45:08.789Z,1.91
2022-12-08T10:49:05.304Z,1.94
2022-12-08T10:53:09.936Z,1.95
2022-12-08T10:57:00.645Z,1.92
2022-12-08T11:00:54.533Z,1.86
2022-12-08T11:04:45.137Z,1.83
2022-12-08T11:08:47.314Z,1.81
2022-12-08T11:12:37.737Z,1.82
2022-12-08T11:16:28.270Z,1.85
2022-12-08T11:20:18.315Z,1.86
2022-12-08T11:24:14.558Z,1.85
2022-12-08T11:28:05.776Z,1.84
2022-12-08T11:32:04.444Z,1.85
2022-12-08T11:35:58.149Z,1.87
2022-12-08T11:39:53.783Z,1.91
2022-12-08T11:43:59.845Z,1.93
2022-12-08T11:47:57.617Z,1.96
2022-12-08T11:51:58.262Z,2.00
2022-12-08T11:56:21.839Z,2.08
2022-12-08T11:59:33.431Z,2.15
2022-12-08T12:03:32.702Z,2.21
2022-12-08T12:07:32.008Z,2.27
2022-12-08T12:11:58.609Z,2.31
2022-12-08T12:16:00.987Z,2.35
2022-12-08T12:19:52.637Z,2.40
2022-12-08T12:23:48.035Z,2.43
2022-12-08T12:27:40.586Z,2.46
2022-12-08T12:31:35.597Z,2.48
2022-12-08T12:35:40.951Z,2.51
2022-12-08T12:39:52.855Z,2.57
2022-12-08T12:43:28.511Z,2.59
2022-12-08T12:47:56.318Z,2.61
2022-12-08T12:51:54.168Z,2.65
2022-12-08T12:56:00.852Z,2.69
2022-12-08T13:00:05.496Z,2.73
2022-12-08T13:04:10.845Z,2.77
2022-12-08T13:08:15.902Z,2.84
2022-12-08T13:12:12.435Z,2.96
2022-12-08T13:16:19.525Z,3.04
2022-12-08T13:20:23.449Z,3.08
2022-12-08T13:24:26.950Z,3.09
2022-12-08T13:28:24.624Z,3.09
2022-12-08T13:33:18.563Z,3.07
2022-12-08T13:37:12.502Z,3.06
2022-12-08T13:41:11.407Z,3.07
2022-12-08T13:45:59.185Z,3.08
2022-12-08T13:57:56.699Z,3.08
2022-12-08T14:01:49.682Z,3.07
2022-12-08T14:06:10.916Z,3.03
2022-12-08T14:09:54.313Z,3.01
2022-12-08T14:18:48.445Z,2.95
2022-12-08T14:22:41.481Z,2.93
2022-12-08T14:26:34.653Z,2.90
2022-12-08T14:30:28.224Z,2.87
2022-12-08T14:34:19.036Z,2.85
2022-12-08T14:38:15.134Z,2.84
2022-12-08T14:42:06.807Z,2.84
2022-12-08T14:46:03.486Z,2.85
2022-12-08T14:49:53.756Z,2.88
2022-12-08T14:53:46.694Z,2.88
2022-12-08T14:57:37.116Z,2.87
2022-12-08T15:01:27.415Z,2.83
2022-12-08T15:05:21.650Z,2.77
2022-12-08T15:09:32.587Z,2.70
2022-12-08T15:13:23.300Z,2.63
2022-12-08T15:17:50.052Z,2.52
2022-12-08T15:21:40.968Z,2.43
2022-12-08T15:25:31.833Z,2.37
2022-12-08T15:29:28.967Z,2.31
2022-12-08T15:33:19.902Z,2.28
2022-12-08T15:37:22.083Z,2.27
2022-12-08T15:41:15.379Z,2.28
2022-12-08T15:45:08.552Z,2.25
2022-12-08T15:48:59.176Z,2.22
2022-12-08T15:52:54.290Z,2.20
2022-12-08T16:01:09.127Z,2.11
2022-12-08T16:05:33.845Z,2.04
2022-12-08T16:09:26.649Z,2.00
2022-12-08T16:13:56.655Z,1.95
2022-12-08T16:17:49.673Z,1.90
2022-12-08T16:22:29.878Z,1.84
2022-12-08T16:26:20.275Z,1.79
2022-12-08T16:30:07.259Z,1.75
2022-12-08T16:33:57.437Z,1.74
2022-12-08T16:37:48.968Z,1.73
2022-12-08T16:41:58.413Z,1.74
2022-12-08T16:45:49.767Z,2.11
2022-12-08T16:49:40.650Z,2.94
2022-12-08T16:53:33.107Z,3.20
2022-12-08T16:57:30.224Z,2.99
2022-12-08T17:01:27.965Z,2.73
2022-12-08T17:05:26.787Z,2.51
2022-12-08T17:09:21.469Z,2.38
2022-12-08T17:13:17.070Z,2.29
2022-12-08T17:17:09.818Z,2.22
2022-12-08T17:21:02.367Z,2.20
2022-12-08T17:24:55.671Z,2.21
2022-12-08T17:29:00.627Z,2.22
2022-12-08T17:32:53.033Z,2.23
2022-12-08T17:36:49.319Z,2.24
2022-12-08T17:40:44.925Z,2.26
2022-12-08T17:44:38.245Z,2.28
2022-12-08T17:48:30.307Z,2.30
2022-12-08T17:52:21.015Z,2.30
2022-12-08T17:56:17.162Z,2.30
2022-12-08T18:00:08.587Z,2.30
2022-12-08T18:04:04.515Z,2.28
2022-12-08T18:07:55.060Z,2.29
2022-12-08T18:11:46.650Z,2.28
2022-12-08T18:15:39.358Z,2.28
2022-12-08T18:19:30.726Z,2.27
2022-12-08T18:23:21.945Z,2.27
2022-12-08T18:27:12.040Z,2.28
2022-12-08T18:31:02.824Z,2.28
2022-12-08T18:34:53.354Z,2.29
2022-12-08T18:38:46.364Z,2.30
2022-12-08T18:42:36.763Z,2.31
2022-12-08T18:46:30.051Z,2.31
2022-12-08T18:50:20.594Z,2.32
2022-12-08T18:54:12.992Z,2.33
2022-12-08T18:58:03.650Z,2.33
2022-12-08T19:01:54.500Z,2.35
2022-12-08T19:05:44.761Z,2.36
2022-12-08T19:09:35.694Z,2.36
2022-12-08T19:13:27.471Z,2.35
2022-12-08T19:17:18.124Z,2.36
2022-12-08T19:21:08.928Z,2.36
2022-12-08T19:25:00.252Z,2.37
2022-12-08T19:28:50.962Z,2.38
2022-12-08T19:32:42.345Z,2.39
2022-12-08T19:36:35.694Z,2.41
2022-12-08T19:40:48.392Z,2.43
2022-12-08T19:44:53.034Z,2.44
2022-12-08T19:48:46.438Z,2.45
2022-12-08T19:52:41.282Z,2.45
2022-12-08T19:56:36.348Z,2.46
2022-12-08T20:00:31.118Z,2.47
2022-12-08T20:04:24.278Z,2.49
2022-12-08T20:08:17.246Z,2.50
2022-12-08T20:12:09.715Z,2.51
2022-12-08T20:16:01.131Z,2.50
2022-12-08T20:19:53.865Z,2.50
2022-12-08T20:23:48.954Z,2.51
2022-12-08T20:27:41.560Z,2.51
2022-12-08T20:31:33.895Z,2.55
2022-12-08T20:35:25.648Z,2.56
2022-12-08T20:39:18.636Z,2.54
2022-12-08T20:43:10.123Z,2.41
2022-12-08T20:47:00.672Z,2.30
2022-12-08T20:50:53.429Z,2.21
2022-12-08T20:54:46.767Z,2.13
2022-12-08T20:58:40.911Z,2.04
2022-12-08T21:02:31.415Z,1.99
2022-12-08T21:06:27.765Z,1.95
2022-12-08T21:10:22.830Z,1.97
2022-12-08T21:14:14.046Z,1.96
2022-12-08T21:18:04.936Z,1.94
2022-12-08T21:21:57.166Z,1.91
2022-12-08T21:25:47.988Z,1.92
2022-12-08T21:29:38.278Z,1.93
2022-12-08T21:33:41.226Z,1.92
2022-12-08T21:37:31.983Z,1.93
2022-12-08T21:41:42.946Z,1.94
2022-12-08T21:45:33.994Z,1.95
2022-12-08T21:49:24.408Z,1.95
2022-12-08T21:53:36.455Z,1.96
2022-12-08T21:56:52.648Z,1.99
2022-12-08T22:00:43.340Z,1.98
2022-12-08T22:04:36.275Z,1.95
2022-12-08T22:08:29.160Z,1.94
2022-12-08T22:12:20.961Z,1.94
2022-12-08T22:16:36.118Z,1.96
2022-12-08T22:19:51.620Z,1.97
2022-12-08T22:23:45.947Z,1.99
2022-12-08T22:27:40.982Z,1.99
2022-12-08T22:31:31.925Z,1.98
2022-12-08T22:35:23.192Z,1.95
2022-12-08T22:39:13.772Z,1.91
2022-12-08T22:43:04.321Z,1.87
2022-12-08T22:46:55.086Z,1.82
2022-12-08T22:50:45.993Z,1.78
2022-12-08T22:54:36.840Z,1.76
2022-12-08T22:58:29.162Z,1.75
2022-12-08T23:02:19.361Z,1.77
2022-12-08T23:06:13.438Z,1.80
2022-12-08T23:10:06.419Z,1.81
2022-12-08T23:14:00.588Z,1.82
2022-12-08T23:17:51.919Z,1.82
2022-12-08T23:21:42.592Z,1.77
2022-12-08T23:25:33.089Z,1.76
2022-12-08T23:29:23.492Z,1.79
2022-12-08T23:33:13.963Z,1.77
2022-12-08T23:37:05.367Z,1.77
2022-12-08T23:41:00.620Z,1.80
2022-12-08T23:44:51.250Z,1.82
2022-12-08T23:48:41.712Z,1.84
2022-12-08T23:52:31.786Z,1.82
2022-12-08T23:56:28.333Z,1.83
